Time;durP1;ratioP1;P1;durP2;ratioP2;P2;SDS_P1;SDS_P2;PMS_P1;PMS_P2;Temp;Humidity;BMP_temperature;BMP_pressure;BME280_temperature;BME280_humidity;BME280_pressure;Samples;Min_cycle;Max_cycle;Signal;HPM_P1;HPM_P2
2021/07/12 00:00:46;;;;;;;5.70;4.95;;;;;;;21.84;63.86;100441.36;128179;1095;24512;-77
2021/07/12 00:03:24;;;;;;;8.33;4.75;;;;;;;21.89;63.87;100433.37;128201;1095;22363;-78
2021/07/12 00:05:54;;;;;;;5.08;4.50;;;;;;;21.93;64.17;100439.92;128260;1095;22356;-78
2021/07/12 00:08:24;;;;;;;5.90;5.40;;;;;;;21.95;64.26;100432.41;128369;1095;22378;-79
2021/07/12 00:10:54;;;;;;;7.93;5.00;;;;;;;21.95;64.46;100436.98;128410;1095;22326;-78
2021/07/12 00:13:23;;;;;;;6.90;5.73;;;;;;;21.91;64.54;100433.95;128426;1095;22367;-79
2021/07/12 00:15:53;;;;;;;6.03;5.53;;;;;;;21.88;64.75;100439.81;128210;1095;25083;-80
2021/07/12 00:18:23;;;;;;;6.88;6.28;;;;;;;21.84;65.19;100433.29;128318;1095;22650;-80
2021/07/12 00:20:53;;;;;;;6.40;5.50;;;;;;;21.82;65.29;100432.70;128342;1095;22359;-78
2021/07/12 00:23:22;;;;;;;5.70;5.28;;;;;;;21.77;65.43;100429.93;128322;1095;25027;-79
2021/07/12 00:25:52;;;;;;;6.85;6.15;;;;;;;21.75;65.24;100432.03;128342;1095;22379;-79
2021/07/12 00:28:21;;;;;;;6.53;5.68;;;;;;;21.71;65.75;100428.20;128342;1095;24492;-79
2021/07/12 00:30:51;;;;;;;5.90;5.40;;;;;;;21.68;65.76;100425.98;128329;1095;22326;-80
2021/07/12 00:33:20;;;;;;;6.45;5.45;;;;;;;21.65;66.08;100426.45;128345;1095;22382;-79
2021/07/12 00:35:51;;;;;;;5.45;5.05;;;;;;;21.61;66.41;100420.74;128224;1095;22356;-78
2021/07/12 00:38:20;;;;;;;6.68;5.93;;;;;;;21.57;66.43;100419.59;128216;1095;22893;-79
2021/07/12 00:40:53;;;;;;;6.07;5.57;;;;;;;21.57;66.74;100417.72;128207;1095;22363;-79
2021/07/12 00:43:25;;;;;;;11.90;5.95;;;;;;;21.56;66.99;100416.09;128357;1095;22378;-78
2021/07/12 00:45:54;;;;;;;5.90;5.43;;;;;;;21.51;66.92;100399.05;128333;1095;22378;-79
2021/07/12 00:48:24;;;;;;;6.43;5.83;;;;;;;21.47;67.13;100396.02;128336;1095;22383;-79
2021/07/12 00:50:56;;;;;;;6.50;5.90;;;;;;;21.41;67.27;100398.84;128282;1095;22462;-79
2021/07/12 00:53:27;;;;;;;6.13;5.55;;;;;;;21.35;67.30;100397.91;128361;1095;22381;-79
2021/07/12 00:55:59;;;;;;;6.23;5.63;;;;;;;21.31;67.85;100392.17;128279;1095;22378;-78
2021/07/12 00:58:28;;;;;;;9.10;5.70;;;;;;;21.29;68.22;100385.39;128245;1095;24502;-78
2021/07/12 01:01:01;;;;;;;5.77;5.37;;;;;;;21.33;68.17;100382.01;128280;1095;22360;-77
2021/07/12 01:03:31;;;;;;;7.08;5.58;;;;;;;21.38;68.60;100373.25;128342;1095;22361;-78
2021/07/12 01:06:06;;;;;;;9.23;5.98;;;;;;;21.42;68.32;100360.97;128313;1095;22420;-77
2021/07/12 01:08:37;;;;;;;6.13;5.53;;;;;;;21.47;68.59;100362.95;128405;1095;22359;-78
2021/07/12 01:11:45;;;;;;;6.93;6.20;;;;;;;21.49;68.41;100364.36;128401;1095;22362;-78
2021/07/12 01:14:26;;;;;;;6.83;6.15;;;;;;;21.50;68.71;100357.91;128276;1095;22379;-78
2021/07/12 01:17:58;;;;;;;6.20;5.60;;;;;;;21.48;68.82;100367.27;128243;1095;22392;-78
2021/07/12 01:21:06;;;;;;;6.00;5.40;;;;;;;21.48;68.61;100359.20;128274;1095;22389;-77
2021/07/12 01:24:15;;;;;;;8.68;6.10;;;;;;;21.43;69.01;100346.50;128230;1095;22378;-78
2021/07/12 01:27:33;;;;;;;7.63;6.08;;;;;;;21.40;68.93;100349.66;128258;1095;22361;-78
2021/07/12 01:30:23;;;;;;;6.70;5.87;;;;;;;21.35;68.94;100347.67;128293;1095;24978;-78
2021/07/12 01:33:21;;;;;;;6.33;5.73;;;;;;;21.33;68.85;100351.64;128351;1095;22383;-78
2021/07/12 01:36:06;;;;;;;6.15;5.65;;;;;;;21.29;68.89;100339.72;128290;1095;22378;-78
2021/07/12 01:39:04;;;;;;;7.53;5.98;;;;;;;21.29;69.11;100353.15;128325;1095;22379;-77
2021/07/12 01:42:14;;;;;;;8.35;6.83;;;;;;;21.26;69.39;100359.00;128353;1095;22364;-77
2021/07/12 01:45:04;;;;;;;6.80;6.30;;;;;;;21.18;69.46;100343.27;128109;1098;22371;-79
2021/07/12 01:48:07;;;;;;;7.50;6.80;;;;;;;21.08;69.18;100342.00;128159;1098;22401;-79
2021/07/12 01:50:55;;;;;;;9.33;8.43;;;;;;;21.05;69.88;100342.47;128139;1098;22375;-78
2021/07/12 01:53:47;;;;;;;9.58;8.60;;;;;;;21.04;69.78;100335.47;128080;1098;24486;-78
2021/07/12 01:56:32;;;;;;;8.03;7.43;;;;;;;21.02;69.63;100332.20;128122;1098;22372;-79
2021/07/12 01:59:24;;;;;;;10.68;9.68;;;;;;;20.98;69.95;100338.28;128192;1098;22362;-78
2021/07/12 02:01:56;;;;;;;8.00;7.38;;;;;;;20.95;70.62;100344.94;128232;1098;23192;-78
2021/07/12 02:04:29;;;;;;;9.35;8.60;;;;;;;20.94;70.39;100337.95;128150;1098;22364;-78
2021/07/12 02:07:01;;;;;;;10.13;8.23;;;;;;;20.94;70.47;100339.82;128259;1098;22357;-78
2021/07/12 02:09:38;;;;;;;9.55;8.65;;;;;;;20.91;70.74;100346.47;128109;1098;22388;-78
2021/07/12 02:12:08;;;;;;;9.98;8.35;;;;;;;20.85;70.81;100342.85;128053;1098;25100;-77
2021/07/12 02:14:46;;;;;;;12.45;9.30;;;;;;;20.83;70.98;100350.34;128136;1098;22370;-79
2021/07/12 02:17:19;;;;;;;10.55;9.33;;;;;;;20.78;70.84;100358.27;128110;1098;22365;-78
2021/07/12 02:19:58;;;;;;;10.33;9.43;;;;;;;20.74;70.94;100353.62;128058;1095;22369;-78
2021/07/12 02:22:30;;;;;;;11.00;10.20;;;;;;;20.70;71.47;100355.95;128324;1095;22356;-78
2021/07/12 02:25:10;;;;;;;11.28;10.10;;;;;;;20.63;71.38;100350.70;128369;1095;22378;-77
2021/07/12 02:27:44;;;;;;;12.40;11.38;;;;;;;20.58;71.36;100358.63;128375;1095;22367;-78
2021/07/12 02:30:17;;;;;;;13.20;11.80;;;;;;;20.52;72.02;100364.92;128392;1095;24505;-78
2021/07/12 02:32:48;;;;;;;12.30;11.03;;;;;;;20.50;72.09;100367.02;128224;1095;22350;-80
2021/07/12 02:35:17;;;;;;;11.85;10.88;;;;;;;20.50;72.17;100376.94;128292;1095;22375;-77
2021/07/12 02:37:49;;;;;;;13.00;11.45;;;;;;;20.46;72.23;100371.22;128296;1095;22364;-78
2021/07/12 02:40:20;;;;;;;13.73;12.68;;;;;;;20.47;72.37;100355.93;128301;1098;22363;-78
2021/07/12 02:42:55;;;;;;;14.35;12.25;;;;;;;20.48;72.33;100369.09;128308;1095;24265;-78
2021/07/12 02:45:27;;;;;;;13.25;12.25;;;;;;;20.45;72.42;100366.88;128348;1098;23467;-78
2021/07/12 02:47:57;;;;;;;14.30;13.13;;;;;;;20.40;72.30;100362.22;128312;1095;22381;-78
2021/07/12 02:50:28;;;;;;;14.35;12.93;;;;;;;20.36;72.92;100362.89;128278;1095;22354;-78
2021/07/12 02:52:59;;;;;;;15.05;13.65;;;;;;;20.33;72.99;100360.70;128235;1098;24953;-77
2021/07/12 02:55:29;;;;;;;13.98;12.85;;;;;;;20.29;72.89;100359.51;128341;1098;22353;-78
2021/07/12 02:58:00;;;;;;;16.13;14.70;;;;;;;20.26;72.85;100351.92;128493;1095;22398;-78
2021/07/12 03:00:30;;;;;;;19.20;15.85;;;;;;;20.24;73.27;100346.80;128319;1097;22352;-78
2021/07/12 03:03:00;;;;;;;18.28;16.53;;;;;;;20.22;73.33;100344.33;128238;1095;22363;-78
2021/07/12 03:05:33;;;;;;;16.38;14.93;;;;;;;20.22;73.31;100343.52;128261;1098;22370;-80
2021/07/12 03:08:21;;;;;;;14.93;13.73;;;;;;;20.24;73.70;100340.63;128273;1095;22728;-78
2021/07/12 03:10:56;;;;;;;16.30;14.90;;;;;;;20.23;73.68;100345.18;128281;1095;22394;-78
2021/07/12 03:13:46;;;;;;;15.18;13.88;;;;;;;20.21;73.67;100345.39;128354;1098;22664;-79
2021/07/12 03:16:17;;;;;;;14.60;13.23;;;;;;;20.17;73.90;100346.91;128310;1095;22363;-78
2021/07/12 03:18:55;;;;;;;14.98;13.80;;;;;;;20.17;73.59;100340.73;128316;1098;24323;-78
2021/07/12 03:21:25;;;;;;;13.83;12.65;;;;;;;20.16;73.80;100337.23;128379;1095;22379;-78
2021/07/12 03:24:01;;;;;;;15.23;13.63;;;;;;;20.15;73.98;100335.59;128276;1095;22368;-79
2021/07/12 03:26:47;;;;;;;14.65;12.98;;;;;;;20.15;73.97;100334.77;128188;1098;22353;-78
2021/07/12 03:29:19;;;;;;;14.80;13.48;;;;;;;20.16;74.13;100331.06;128282;1095;24489;-79
2021/07/12 03:31:51;;;;;;;15.85;14.20;;;;;;;20.18;74.62;100334.31;128317;1098;22273;-78
2021/07/12 03:34:22;;;;;;;15.75;13.98;;;;;;;20.23;74.28;100334.45;128383;1095;22367;-78
2021/07/12 03:36:52;;;;;;;16.60;14.98;;;;;;;20.26;74.30;100343.88;128287;1098;22371;-79
2021/07/12 03:39:23;;;;;;;20.63;14.70;;;;;;;20.31;74.50;100357.42;128273;1095;24985;-79
2021/07/12 03:41:56;;;;;;;14.95;13.75;;;;;;;20.35;73.85;100354.03;128286;1098;22375;-79
2021/07/12 03:44:27;;;;;;;14.48;13.28;;;;;;;20.41;74.12;100360.34;128356;1095;22362;-79
2021/07/12 03:46:57;;;;;;;14.73;13.33;;;;;;;20.43;74.05;100364.44;128232;1095;22363;-79
2021/07/12 03:49:26;;;;;;;13.93;12.73;;;;;;;20.45;74.02;100365.01;128254;1095;23154;-79
2021/07/12 03:51:57;;;;;;;14.90;13.53;;;;;;;20.49;73.55;100351.94;128252;1095;22354;-78
2021/07/12 03:54:27;;;;;;;15.53;14.08;;;;;;;20.51;73.65;100357.13;128281;1098;22388;-79
2021/07/12 03:56:56;;;;;;;14.40;13.30;;;;;;;20.56;73.59;100368.80;128205;1098;22361;-78
2021/07/12 03:59:26;;;;;;;14.90;13.40;;;;;;;20.62;73.72;100369.71;128270;1098;22358;-78
2021/07/12 04:01:55;;;;;;;15.18;14.08;;;;;;;20.62;73.42;100365.16;128286;1095;22380;-78
2021/07/12 04:04:26;;;;;;;16.70;14.13;;;;;;;20.63;72.86;100358.76;128215;1096;22372;-78
2021/07/12 04:06:55;;;;;;;14.93;13.78;;;;;;;20.63;73.32;100364.13;128212;1095;22363;-78
2021/07/12 04:09:25;;;;;;;13.98;12.93;;;;;;;20.64;73.07;100365.75;127893;1098;23306;-79
2021/07/12 04:11:56;;;;;;;14.75;13.35;;;;;;;20.68;73.40;100368.78;127972;1098;22465;-79
2021/07/12 04:14:25;;;;;;;18.15;16.60;;;;;;;20.72;73.54;100366.45;127969;1098;23143;-78
2021/07/12 04:16:55;;;;;;;20.93;19.35;;;;;;;20.72;73.17;100371.81;127976;1098;24387;-79
2021/07/12 04:19:25;;;;;;;20.40;18.58;;;;;;;20.72;73.44;100358.39;127893;1098;22373;-79
2021/07/12 04:21:54;;;;;;;21.23;19.35;;;;;;;20.79;73.92;100353.72;127913;1097;22364;-79
2021/07/12 04:24:24;;;;;;;19.98;17.95;;;;;;;20.86;73.69;100357.12;127950;1098;22382;-81
2021/07/12 04:26:54;;;;;;;18.15;16.40;;;;;;;20.94;73.57;100353.25;128156;1098;22340;-79
2021/07/12 04:29:23;;;;;;;15.00;13.60;;;;;;;20.98;72.74;100357.89;128280;1098;23328;-78
2021/07/12 04:31:55;;;;;;;15.25;13.98;;;;;;;21.00;72.91;100352.31;128241;1098;22369;-79
2021/07/12 04:34:24;;;;;;;13.95;12.55;;;;;;;21.01;72.61;100352.06;128243;1097;24534;-79
2021/07/12 04:36:55;;;;;;;13.75;10.65;;;;;;;21.03;72.04;100359.89;128312;1098;24508;-79
2021/07/12 04:39:24;;;;;;;12.03;10.80;;;;;;;20.99;72.28;100359.52;128235;1098;22366;-78
2021/07/12 04:41:54;;;;;;;10.85;9.95;;;;;;;20.95;71.90;100355.69;128256;1097;22369;-78
2021/07/12 04:44:24;;;;;;;12.68;10.00;;;;;;;20.94;72.41;100358.62;128225;1098;22392;-78
2021/07/12 04:46:53;;;;;;;11.53;10.45;;;;;;;20.90;72.10;100353.72;128241;1096;22369;-79
2021/07/12 04:49:23;;;;;;;11.83;10.50;;;;;;;20.88;72.31;100352.31;128331;1098;22373;-78
2021/07/12 04:51:53;;;;;;;12.63;11.50;;;;;;;20.85;72.14;100342.85;128395;1098;22389;-79
2021/07/12 04:54:23;;;;;;;14.55;10.83;;;;;;;20.86;71.99;100346.38;128261;1098;22831;-78
2021/07/12 04:56:52;;;;;;;12.93;11.20;;;;;;;20.86;72.06;100357.12;128314;1095;22353;-79
2021/07/12 04:59:27;;;;;;;13.55;11.98;;;;;;;20.85;72.06;100352.78;128175;1095;24516;-78
2021/07/12 05:01:57;;;;;;;14.33;13.08;;;;;;;20.80;71.94;100358.05;128162;1095;22350;-78
2021/07/12 05:04:26;;;;;;;13.93;12.48;;;;;;;20.78;71.76;100366.33;128226;1095;22350;-82
2021/07/12 05:06:56;;;;;;;13.13;11.50;;;;;;;20.77;72.04;100366.58;128379;1095;22360;-78
2021/07/12 05:09:30;;;;;;;13.70;12.33;;;;;;;20.78;72.62;100368.20;128246;1098;22617;-76
2021/07/12 05:12:00;;;;;;;18.88;12.90;;;;;;;20.82;72.46;100374.72;128222;1095;22352;-76
2021/07/12 05:14:30;;;;;;;13.95;12.63;;;;;;;20.83;72.30;100371.82;128224;1098;22369;-77
2021/07/12 05:16:59;;;;;;;12.60;11.50;;;;;;;20.83;72.17;100371.82;128218;1095;24243;-77
2021/07/12 05:19:29;;;;;;;13.98;12.33;;;;;;;20.83;72.07;100362.95;128180;1098;22354;-77
2021/07/12 05:21:59;;;;;;;17.55;13.05;;;;;;;20.86;72.24;100359.80;128219;1095;22353;-77
2021/07/12 05:24:29;;;;;;;12.93;11.63;;;;;;;20.89;72.30;100368.20;128155;1098;24342;-77
2021/07/12 05:26:58;;;;;;;11.70;10.70;;;;;;;20.89;71.79;100356.62;128200;1095;22346;-76
2021/07/12 05:29:28;;;;;;;12.78;11.55;;;;;;;20.93;72.28;100347.06;128194;1095;22362;-78
2021/07/12 05:31:57;;;;;;;11.98;10.90;;;;;;;20.99;72.20;100348.78;128182;1095;22354;-77
2021/07/12 05:34:27;;;;;;;13.75;12.40;;;;;;;21.06;71.76;100341.44;128270;1095;22352;-78
2021/07/12 05:36:56;;;;;;;11.75;10.65;;;;;;;21.09;71.46;100340.97;128213;1095;22374;-78
2021/07/12 05:39:26;;;;;;;11.50;10.60;;;;;;;21.16;71.61;100340.83;128165;1095;22353;-78
2021/07/12 05:41:55;;;;;;;12.35;11.08;;;;;;;21.21;71.17;100348.97;128225;1093;22795;-78
2021/07/12 05:44:25;;;;;;;13.23;12.15;;;;;;;21.26;70.92;100342.88;128192;1095;22356;-78
2021/07/12 05:46:54;;;;;;;12.05;11.00;;;;;;;21.33;70.74;100336.33;128211;1095;22350;-78
2021/07/12 05:49:24;;;;;;;13.60;11.13;;;;;;;21.43;70.38;100335.75;128199;1095;22372;-78
2021/07/12 05:51:54;;;;;;;11.05;9.85;;;;;;;21.53;70.54;100343.19;128264;1095;22350;-78
2021/07/12 05:54:24;;;;;;;10.78;9.85;;;;;;;21.61;70.19;100340.91;128202;1095;22355;-78
2021/07/12 05:56:53;;;;;;;10.40;9.50;;;;;;;21.71;70.05;100342.97;128260;1095;22378;-78
2021/07/12 05:59:23;;;;;;;8.83;8.05;;;;;;;21.81;69.65;100343.16;128250;1095;22926;-77
2021/07/12 06:01:53;;;;;;;10.15;9.15;;;;;;;21.92;69.18;100338.76;128223;1095;24504;-76
2021/07/12 06:04:22;;;;;;;9.85;8.73;;;;;;;22.06;68.77;100336.59;128184;1096;22372;-77
2021/07/12 06:06:52;;;;;;;10.10;9.10;;;;;;;22.15;67.97;100345.06;128212;1095;22367;-76
2021/07/12 06:09:21;;;;;;;8.88;8.13;;;;;;;22.14;67.60;100348.81;128190;1097;22372;-77
2021/07/12 06:11:51;;;;;;;9.73;8.03;;;;;;;22.09;67.10;100353.06;128220;1095;22382;-77
2021/07/12 06:14:20;;;;;;;8.88;8.08;;;;;;;22.09;67.05;100353.06;128175;1098;22356;-77
2021/07/12 06:16:50;;;;;;;8.98;8.15;;;;;;;22.05;66.83;100359.16;128202;1095;22379;-77
2021/07/12 06:19:20;;;;;;;8.23;7.38;;;;;;;21.98;66.65;100362.00;128288;1098;22360;-77
2021/07/12 06:21:50;;;;;;;7.85;6.90;;;;;;;21.95;66.90;100372.43;128247;1095;22367;-77
2021/07/12 06:24:19;;;;;;;9.17;7.30;;;;;;;21.94;67.08;100379.69;128219;1095;22363;-76
2021/07/12 06:26:52;;;;;;;12.60;11.13;;;;;;;21.91;66.89;100385.55;128149;1098;22487;-76
2021/07/12 06:29:21;;;;;;;16.23;14.83;;;;;;;21.86;67.40;100380.09;128216;1095;22375;-76
2021/07/12 06:31:51;;;;;;;21.77;19.15;;;;;;;21.90;67.91;100394.69;128265;1098;22357;-76
2021/07/12 06:34:21;;;;;;;19.50;17.70;;;;;;;21.92;67.79;100389.05;128166;1095;22378;-76
2021/07/12 06:36:50;;;;;;;16.83;15.30;;;;;;;22.00;67.59;100392.17;128246;1095;22364;-76
2021/07/12 06:39:20;;;;;;;17.50;15.15;;;;;;;22.09;67.75;100388.03;128248;1095;24505;-76
2021/07/12 06:41:49;;;;;;;12.58;11.38;;;;;;;22.26;67.69;100384.58;128175;1095;24517;-76
2021/07/12 06:44:19;;;;;;;11.58;10.48;;;;;;;22.40;67.15;100379.68;128186;1095;22384;-76
2021/07/12 06:46:51;;;;;;;11.48;9.75;;;;;;;22.51;66.82;100379.58;128190;1095;22811;-76
2021/07/12 06:49:22;;;;;;;12.05;8.38;;;;;;;22.65;66.76;100388.13;128178;1095;22379;-76
2021/07/12 06:51:52;;;;;;;15.05;8.63;;;;;;;22.78;66.00;100395.05;128218;1095;22359;-78
2021/07/12 06:54:21;;;;;;;27.00;10.40;;;;;;;22.91;66.12;100393.89;128225;1095;24534;-78
2021/07/12 06:56:51;;;;;;;8.40;7.70;;;;;;;23.08;65.44;100389.30;128290;1095;22407;-78
2021/07/12 06:59:21;;;;;;;9.53;8.27;;;;;;;23.20;65.06;100384.61;128335;1095;22385;-77
2021/07/12 07:01:51;;;;;;;9.30;8.40;;;;;;;23.34;64.74;100384.23;128210;1095;24256;-77
2021/07/12 07:04:20;;;;;;;8.95;8.20;;;;;;;23.41;64.66;100388.36;128261;1095;24504;-79
2021/07/12 07:06:50;;;;;;;13.40;9.10;;;;;;;23.56;64.38;100373.42;128486;1095;22386;-78
2021/07/12 07:09:19;;;;;;;10.28;8.40;;;;;;;23.78;64.43;100382.33;128211;1098;22358;-78
2021/07/12 07:11:49;;;;;;;8.43;7.73;;;;;;;23.94;63.75;100386.80;128217;1095;22362;-78
2021/07/12 07:14:19;;;;;;;10.85;7.83;;;;;;;24.14;63.34;100393.45;128216;1095;24529;-78
2021/07/12 07:16:49;;;;;;;9.50;8.20;;;;;;;24.36;62.90;100394.19;128198;1098;22372;-78
2021/07/12 07:19:18;;;;;;;8.90;8.08;;;;;;;24.51;62.02;100398.11;128214;1095;22381;-79
2021/07/12 07:21:52;;;;;;;9.25;8.30;;;;;;;24.38;61.27;100389.33;128042;1098;22372;-78
2021/07/12 07:24:22;;;;;;;8.80;7.55;;;;;;;24.26;61.79;100396.81;128200;1095;22458;-78
2021/07/12 07:26:51;;;;;;;8.00;7.20;;;;;;;24.25;62.13;100384.37;128254;1098;22372;-76
2021/07/12 07:29:21;;;;;;;10.80;7.13;;;;;;;24.31;61.82;100388.73;128260;1095;24794;-78
2021/07/12 07:31:50;;;;;;;8.53;7.10;;;;;;;24.25;61.67;100384.37;128205;1098;22361;-77
2021/07/12 07:34:39;;;;;;;8.03;7.23;;;;;;;24.11;61.91;100385.88;128230;1095;22351;-80
2021/07/12 07:37:10;;;;;;;10.08;7.13;;;;;;;24.02;62.07;100390.10;128241;1098;22391;-77
2021/07/12 07:39:40;;;;;;;7.33;6.63;;;;;;;23.93;62.09;100382.48;128250;1095;22362;-78
2021/07/12 07:42:24;;;;;;;8.77;7.20;;;;;;;23.83;62.76;100363.50;128221;1097;22357;-79
2021/07/12 07:44:57;;;;;;;10.28;9.43;;;;;;;23.79;62.63;100362.39;128202;1095;23148;-77
2021/07/12 07:47:27;;;;;;;8.70;7.90;;;;;;;23.71;63.64;100354.74;128229;1095;24505;-79
2021/07/12 07:50:18;;;;;;;7.65;6.90;;;;;;;23.68;64.17;100353.36;128215;1098;22353;-78
2021/07/12 07:52:49;;;;;;;8.18;7.45;;;;;;;23.97;65.31;100355.80;128277;1095;22411;-78
2021/07/12 07:55:21;;;;;;;8.73;7.83;;;;;;;24.45;64.98;100362.14;128263;1098;22374;-78
2021/07/12 07:57:50;;;;;;;8.40;7.53;;;;;;;25.07;64.22;100361.42;128297;1095;22381;-79
2021/07/12 08:00:21;;;;;;;9.30;8.40;;;;;;;25.53;62.88;100369.73;128235;1098;22375;-78
2021/07/12 08:02:51;;;;;;;;;;;;;;;25.91;61.18;100383.09;128231;1095;22367;-78
2021/07/12 08:05:21;;;;;;;7.93;7.23;;;;;;;25.89;59.78;100385.23;128311;1098;21269;-78
2021/07/12 08:07:50;;;;;;;8.48;7.08;;;;;;;25.88;60.04;100392.55;128284;1095;23129;-79
2021/07/12 08:10:21;;;;;;;9.38;8.48;;;;;;;25.98;59.70;100389.05;128260;1095;22464;-78
2021/07/12 08:12:51;;;;;;;11.73;9.50;;;;;;;26.01;59.65;100394.73;128182;1098;22375;-79
2021/07/12 08:15:20;;;;;;;11.00;9.57;;;;;;;25.98;58.96;100394.46;128240;1095;22382;-78
2021/07/12 08:17:52;;;;;;;9.50;8.63;;;;;;;25.77;59.36;100391.70;128185;1098;23272;-78
2021/07/12 08:20:22;;;;;;;9.40;8.45;;;;;;;25.53;59.35;100383.26;128209;1095;22364;-78
2021/07/12 08:22:55;;;;;;;10.00;8.93;;;;;;;25.31;59.91;100394.26;128263;1095;22381;-78
2021/07/12 08:25:25;;;;;;;8.70;7.80;;;;;;;24.97;59.74;100409.22;128215;1098;22356;-78
2021/07/12 08:27:54;;;;;;;9.50;8.55;;;;;;;24.55;60.94;100402.72;128261;1095;22362;-79
2021/07/12 08:30:25;;;;;;;8.13;7.43;;;;;;;24.32;62.35;100381.45;128188;1095;24900;-78
2021/07/12 08:32:55;;;;;;;10.58;9.48;;;;;;;24.18;63.24;100389.17;128231;1095;22397;-79
2021/07/12 08:35:24;;;;;;;12.25;10.38;;;;;;;23.99;63.72;100385.22;128200;1095;22352;-78
2021/07/12 08:37:54;;;;;;;10.68;9.68;;;;;;;23.75;64.33;100395.50;128201;1095;22656;-78
2021/07/12 08:40:24;;;;;;;12.00;10.80;;;;;;;23.55;65.72;100385.28;128249;1095;22362;-78
2021/07/12 08:42:58;;;;;;;11.78;10.25;;;;;;;23.38;66.48;100383.47;128250;1095;24512;-78
2021/07/12 08:45:29;;;;;;;11.65;10.65;;;;;;;23.23;67.32;100384.12;128277;1095;22376;-78
2021/07/12 08:47:59;;;;;;;12.27;11.10;;;;;;;23.10;67.69;100391.77;128339;1096;22375;-78
2021/07/12 08:50:29;;;;;;;12.33;11.03;;;;;;;22.95;68.28;100382.39;128179;1095;22679;-79
2021/07/12 08:52:59;;;;;;;12.88;11.65;;;;;;;22.87;69.55;100388.19;128273;1098;22369;-79
2021/07/12 08:55:29;;;;;;;12.93;11.83;;;;;;;22.86;70.29;100383.03;128235;1095;22359;-79
2021/07/12 08:58:08;;;;;;;12.25;11.15;;;;;;;22.87;70.94;100381.98;128226;1093;22221;-79
2021/07/12 09:01:01;;;;;;;21.45;19.95;;;;;;;22.90;71.47;100385.00;128199;1095;22672;-79
2021/07/12 09:03:40;;;;;;;13.35;12.13;;;;;;;22.93;71.80;100379.14;128480;1095;22364;-78
2021/07/12 09:06:16;;;;;;;14.83;13.33;;;;;;;22.99;71.90;100375.46;128189;1095;23691;-79
2021/07/12 09:08:58;;;;;;;14.23;12.85;;;;;;;22.99;71.35;100380.01;128270;1095;22375;-78
2021/07/12 09:11:38;;;;;;;13.63;12.48;;;;;;;23.00;71.54;100373.58;128215;1095;22382;-78
2021/07/12 09:14:11;;;;;;;14.53;12.93;;;;;;;23.02;71.60;100376.82;128206;1097;22374;-78
2021/07/12 09:16:56;;;;;;;16.10;14.58;;;;;;;23.06;72.16;100382.52;128282;1095;22366;-77
2021/07/12 09:19:44;;;;;;;14.05;12.95;;;;;;;23.10;71.88;100384.48;128193;1095;22381;-79
2021/07/12 09:22:16;;;;;;;15.93;14.48;;;;;;;23.14;71.82;100390.19;128214;1095;22369;-78
2021/07/12 09:24:56;;;;;;;13.05;11.75;;;;;;;23.15;71.30;100387.23;128202;1098;23186;-78
2021/07/12 09:27:29;;;;;;;12.85;11.90;;;;;;;23.17;70.96;100382.42;128201;1095;22367;-78
2021/07/12 09:30:21;;;;;;;12.35;11.28;;;;;;;23.24;70.98;100385.73;128282;1095;24253;-78
2021/07/12 09:32:53;;;;;;;13.63;12.53;;;;;;;23.35;70.76;100381.28;128178;1096;23313;-78
2021/07/12 09:35:23;;;;;;;16.03;14.55;;;;;;;23.44;70.64;100376.27;128228;1095;22674;-77
2021/07/12 09:37:59;;;;;;;18.55;17.08;;;;;;;23.47;70.32;100381.97;128206;1095;22377;-80
2021/07/12 09:40:30;;;;;;;13.20;10.87;;;;;;;23.54;69.80;100364.78;128274;1095;22381;-79
2021/07/12 09:42:59;;;;;;;13.50;11.98;;;;;;;23.63;70.04;100365.97;128233;1095;22356;-78
2021/07/12 09:45:32;;;;;;;14.73;12.65;;;;;;;23.63;68.83;100360.58;128222;1097;22725;-80
2021/07/12 09:48:07;;;;;;;12.55;11.35;;;;;;;23.69;69.19;100355.02;128284;1098;24244;-79
2021/07/12 09:50:49;;;;;;;13.35;11.18;;;;;;;23.82;68.33;100348.36;128188;1098;22375;-80
2021/07/12 09:53:28;;;;;;;12.63;11.35;;;;;;;23.94;68.01;100356.31;128238;1095;24508;-79
2021/07/12 09:56:11;;;;;;;15.05;13.28;;;;;;;23.99;67.81;100352.84;128177;1098;22450;-78
2021/07/12 09:58:41;;;;;;;12.75;11.58;;;;;;;23.97;66.84;100358.50;128208;1095;22720;-78
2021/07/12 10:01:10;;;;;;;13.70;12.35;;;;;;;24.02;67.16;100355.02;128188;1096;22383;-80
2021/07/12 10:03:41;;;;;;;20.28;18.68;;;;;;;24.17;67.48;100338.97;128250;1098;22373;-79
2021/07/12 10:06:10;;;;;;;19.47;17.87;;;;;;;24.29;67.22;100338.77;128348;1098;25029;-80
2021/07/12 10:08:41;;;;;;;11.75;10.68;;;;;;;24.38;66.91;100335.33;128177;1095;23329;-77
2021/07/12 10:11:11;;;;;;;12.65;11.55;;;;;;;24.51;66.15;100349.50;128336;1095;24246;-78
2021/07/12 10:13:40;;;;;;;12.33;11.00;;;;;;;24.58;66.05;100355.48;128253;1095;22369;-78
2021/07/12 10:16:10;;;;;;;10.13;9.15;;;;;;;24.77;66.49;100353.17;128173;1095;22385;-78
2021/07/12 10:18:40;;;;;;;10.65;9.65;;;;;;;25.03;65.80;100351.42;128165;1095;22362;-78
2021/07/12 10:21:11;;;;;;;10.93;9.68;;;;;;;25.18;64.09;100365.01;128235;1095;24528;-78
2021/07/12 10:23:41;;;;;;;10.65;9.58;;;;;;;25.18;63.64;100366.91;128203;1095;24508;-77
2021/07/12 10:26:11;;;;;;;9.60;8.73;;;;;;;25.22;63.50;100370.70;128228;1095;22363;-77
2021/07/12 10:28:45;;;;;;;12.33;11.25;;;;;;;25.28;63.18;100361.53;128285;1095;22382;-77
2021/07/12 10:31:19;;;;;;;;;;;;;;;25.30;62.83;100362.09;128331;1095;24527;-78
2021/07/12 10:33:49;;;;;;;16.55;10.98;;;;;;;25.34;62.77;100376.70;128195;1098;21617;-77
2021/07/12 10:36:39;;;;;;;12.30;9.50;;;;;;;25.42;61.91;100365.36;128251;1095;22363;-78
2021/07/12 10:39:12;;;;;;;9.43;7.28;;;;;;;25.46;60.85;100366.48;128260;1095;22395;-84
2021/07/12 10:41:49;;;;;;;8.33;7.53;;;;;;;25.53;60.31;100360.81;128073;1098;22389;-83
2021/07/12 10:44:20;;;;;;;6.95;5.38;;;;;;;25.64;59.28;100362.45;128323;1098;24498;-84
2021/07/12 10:46:52;;;;;;;20.88;18.08;;;;;;;25.65;58.93;100357.84;128190;1095;25852;-81
2021/07/12 10:49:38;;;;;;;7.00;6.40;;;;;;;25.68;58.83;100352.71;128011;1098;23188;-81
2021/07/12 10:52:46;;;;;;;12.48;10.03;;;;;;;25.68;58.39;100362.73;128283;1098;22369;-82
2021/07/12 10:55:32;;;;;;;6.13;5.53;;;;;;;25.61;57.35;100368.39;128369;1098;22388;-79
2021/07/12 10:58:29;;;;;;;7.03;6.37;;;;;;;25.53;57.45;100345.39;128312;1095;24208;-79
2021/07/12 11:01:05;;;;;;;16.25;7.30;;;;;;;25.46;57.74;100311.55;128234;1095;22350;-80
2021/07/12 11:03:55;;;;;;;9.00;6.03;;;;;;;25.45;57.65;100310.73;128272;1095;23118;-80
2021/07/12 11:06:27;;;;;;;5.40;4.88;;;;;;;25.38;56.99;100309.38;127998;1098;22386;-79
2021/07/12 11:08:59;;;;;;;5.80;5.20;;;;;;;25.26;56.80;100310.45;128092;1098;22374;-80
2021/07/12 11:11:31;;;;;;;6.05;4.43;;;;;;;25.12;57.13;100309.30;128014;1098;24538;-79
2021/07/12 11:14:08;;;;;;;5.55;5.05;;;;;;;24.94;56.64;100318.66;127950;1098;24544;-79
2021/07/12 11:16:46;;;;;;;4.45;3.85;;;;;;;24.72;56.23;100313.41;127998;1098;22369;-80
2021/07/12 11:19:27;;;;;;;8.03;4.48;;;;;;;24.57;56.84;100316.86;127941;1098;22445;-79
2021/07/12 11:22:15;;;;;;;12.15;5.68;;;;;;;24.49;57.18;100313.83;128380;1096;22580;-80
2021/07/12 11:25:06;;;;;;;10.38;7.05;;;;;;;24.45;57.78;100312.73;127957;1098;22373;-80
2021/07/12 11:27:37;;;;;;;9.75;8.50;;;;;;;24.48;57.98;100307.62;128023;1098;22396;-77
2021/07/12 11:30:29;;;;;;;8.88;5.30;;;;;;;24.55;57.95;100304.69;127921;1098;22382;-77
2021/07/12 11:32:59;;;;;;;5.50;5.00;;;;;;;24.60;57.61;100300.14;127986;1098;22369;-81
2021/07/12 11:35:29;;;;;;;9.18;7.03;;;;;;;24.67;57.45;100313.41;127924;1101;22399;-80
2021/07/12 11:38:07;;;;;;;7.93;6.20;;;;;;;24.76;57.46;100300.20;127623;1101;22354;-79
2021/07/12 11:40:37;;;;;;;12.10;6.98;;;;;;;24.87;57.14;100300.00;128094;1101;22840;-80